Castanheiras, Brazil
Current Conditions -  °F | °C
As of 7:00 AM on Monday 20 Oct 2014 (Local Time) from SBVH Reporting Station
Clear Clear  
Wind Chill: 73°   Ceiling: Unl
Heat Index: 73°   Visibility: 6mi
Dew Point: 68°   Wind: 3mph
Humidity: 83%   Direction: 310°NW
Pressure: 30.03"   Gusts: NA
Location:  11.42°S, 61.94°W
Report Text: SBVH 201100Z 31003KT CAVOK 23/20 Q1017
Loading
Personal Weather Stations






























Interactive Weather Map
Tropical Storm Tracking
New forecast layout! Learn more

10-Day Weather Forecast

Advertisements
Track Severe Weather on mobile